createdAt,value
2023-02-09T00:01:46.904Z,-6.40
2023-02-09T00:05:03.607Z,-6.53
2023-02-09T00:08:19.839Z,-6.53
2023-02-09T00:11:48.330Z,-6.50
2023-02-09T00:15:04.845Z,-6.50
2023-02-09T00:18:21.124Z,-6.47
2023-02-09T00:21:37.435Z,-6.47
2023-02-09T00:24:55.060Z,-6.79
2023-02-09T00:28:12.362Z,-6.73
2023-02-09T00:31:28.749Z,-6.79
2023-02-09T00:34:46.956Z,-6.78
2023-02-09T00:38:03.144Z,-6.66
2023-02-09T00:41:22.707Z,-6.54
2023-02-09T00:44:36.522Z,-6.55
2023-02-09T00:47:52.361Z,-6.52
2023-02-09T00:51:08.930Z,-6.69
2023-02-09T00:54:25.624Z,-6.82
2023-02-09T00:57:41.701Z,-6.99
2023-02-09T01:00:58.323Z,-6.99
2023-02-09T01:04:15.112Z,-6.88
2023-02-09T01:07:31.668Z,-6.85
2023-02-09T01:10:48.408Z,-6.93
2023-02-09T01:14:06.299Z,-6.99
2023-02-09T01:17:22.593Z,-7.04
2023-02-09T01:20:39.087Z,-7.07
2023-02-09T01:23:56.378Z,-7.12
2023-02-09T01:27:12.684Z,-7.12
2023-02-09T01:30:29.227Z,-7.13
2023-02-09T01:33:45.391Z,-7.21
2023-02-09T01:37:01.551Z,-7.17
2023-02-09T01:40:19.925Z,-7.08
2023-02-09T01:43:39.830Z,-7.03
2023-02-09T01:46:56.394Z,-7.16
2023-02-09T01:50:13.110Z,-7.23
2023-02-09T01:53:30.095Z,-7.27
2023-02-09T01:56:49.618Z,-7.23
2023-02-09T02:00:10.378Z,-7.26
2023-02-09T02:03:36.796Z,-7.28
2023-02-09T02:06:53.874Z,-7.29
2023-02-09T02:10:12.458Z,-7.29
2023-02-09T02:13:30.526Z,-7.16
2023-02-09T02:16:54.589Z,-7.04
2023-02-09T02:21:01.223Z,-6.93
2023-02-09T02:25:03.618Z,-6.86
2023-02-09T02:28:48.814Z,-6.93
2023-02-09T02:32:41.051Z,-7.03
2023-02-09T02:36:03.066Z,-7.03
2023-02-09T02:39:23.720Z,-7.07
2023-02-09T02:42:54.179Z,-7.09
2023-02-09T02:46:15.136Z,-7.09
2023-02-09T02:49:36.959Z,-7.21
2023-02-09T02:52:57.270Z,-7.35
2023-02-09T02:56:17.947Z,-7.25
2023-02-09T02:59:37.503Z,-7.32
2023-02-09T03:02:53.957Z,-7.43
2023-02-09T03:06:13.266Z,-7.45
2023-02-09T03:09:27.119Z,-7.47
2023-02-09T03:12:52.455Z,-7.43
2023-02-09T03:16:21.148Z,-7.45
2023-02-09T03:19:46.802Z,-7.50
2023-02-09T03:23:07.651Z,-7.56
2023-02-09T03:26:33.617Z,-7.50
2023-02-09T03:29:54.004Z,-7.52
2023-02-09T03:33:14.899Z,-7.58
2023-02-09T03:36:31.602Z,-7.61
2023-02-09T03:39:48.063Z,-7.56
2023-02-09T03:43:04.359Z,-7.53
2023-02-09T03:46:20.733Z,-7.54
2023-02-09T03:49:39.978Z,-7.50
2023-02-09T03:52:56.119Z,-7.49
2023-02-09T03:56:14.403Z,-7.47
2023-02-09T03:59:31.302Z,-7.45
2023-02-09T04:02:47.741Z,-7.64
2023-02-09T04:06:03.969Z,-7.65
2023-02-09T04:09:20.854Z,-7.56
2023-02-09T04:12:36.867Z,-7.54
2023-02-09T04:15:53.492Z,-7.56
2023-02-09T04:19:10.605Z,-7.55
2023-02-09T04:22:27.072Z,-7.65
2023-02-09T04:25:43.363Z,-7.58
2023-02-09T04:28:59.741Z,-7.52
2023-02-09T04:32:16.033Z,-7.61
2023-02-09T04:35:46.434Z,-7.66
2023-02-09T04:39:03.834Z,-7.65
2023-02-09T04:42:19.962Z,-7.68
2023-02-09T04:45:36.038Z,-7.74
2023-02-09T04:48:53.067Z,-7.79
2023-02-09T04:52:09.447Z,-7.86
2023-02-09T04:55:27.221Z,-7.86
2023-02-09T04:58:57.603Z,-7.91
2023-02-09T05:02:14.010Z,-7.92
2023-02-09T05:05:30.799Z,-7.89
2023-02-09T05:08:47.231Z,-7.88
2023-02-09T05:12:03.420Z,-7.96
2023-02-09T05:15:20.394Z,-7.98
2023-02-09T05:18:36.446Z,-7.95
2023-02-09T05:21:52.829Z,-8.01
2023-02-09T05:25:09.028Z,-8.00
2023-02-09T05:28:25.426Z,-8.04
2023-02-09T05:31:42.013Z,-8.06
2023-02-09T05:34:58.368Z,-8.04
2023-02-09T05:38:15.049Z,-7.94
2023-02-09T05:41:45.264Z,-7.93
2023-02-09T05:45:01.414Z,-7.97
2023-02-09T05:48:17.868Z,-7.99
2023-02-09T05:51:34.348Z,-7.97
2023-02-09T05:54:52.078Z,-7.97
2023-02-09T05:58:08.204Z,-8.00
2023-02-09T06:01:24.496Z,-8.04
2023-02-09T06:04:41.427Z,-8.06
2023-02-09T06:07:58.700Z,-8.03
2023-02-09T06:11:15.360Z,-8.07
2023-02-09T06:14:32.128Z,-8.08
2023-02-09T06:17:48.311Z,-8.15
2023-02-09T06:21:04.682Z,-8.14
2023-02-09T06:24:21.451Z,-8.07
2023-02-09T06:27:38.042Z,-7.93
2023-02-09T06:30:56.495Z,-7.87
2023-02-09T06:34:13.103Z,-7.78
2023-02-09T06:37:29.393Z,-7.75
2023-02-09T06:40:46.008Z,-7.65
2023-02-09T06:44:02.717Z,-7.57
2023-02-09T06:47:20.036Z,-7.38
2023-02-09T06:50:36.759Z,-7.38
2023-02-09T06:53:53.728Z,-7.22
2023-02-09T06:57:10.212Z,-6.93
2023-02-09T07:00:28.690Z,-6.57
2023-02-09T07:03:45.138Z,-5.90
2023-02-09T07:07:01.746Z,-5.26
2023-02-09T07:10:21.633Z,-4.58
2023-02-09T07:13:39.579Z,-4.19
2023-02-09T07:16:56.102Z,-3.48
2023-02-09T07:20:17.011Z,-3.29
2023-02-09T07:23:33.641Z,-2.77
2023-02-09T07:26:50.062Z,-2.82
2023-02-09T07:30:06.183Z,-3.23
2023-02-09T07:33:23.456Z,-2.09
2023-02-09T07:36:39.891Z,-2.23
2023-02-09T07:39:56.561Z,-2.09
2023-02-09T07:43:13.991Z,-2.08
2023-02-09T07:46:31.593Z,-2.14
2023-02-09T07:49:48.046Z,-2.15
2023-02-09T07:53:06.897Z,-2.17
2023-02-09T07:56:23.214Z,-2.51
2023-02-09T07:59:39.908Z,-2.42
2023-02-09T08:02:56.995Z,-2.37
2023-02-09T08:06:21.780Z,-2.42
2023-02-09T08:09:39.683Z,-2.45
2023-02-09T08:13:05.937Z,-2.13
2023-02-09T08:16:27.765Z,-2.13
2023-02-09T08:19:43.925Z,-1.98
2023-02-09T08:23:06.931Z,-2.02
2023-02-09T08:26:24.211Z,-2.05
2023-02-09T08:29:42.625Z,-1.57
2023-02-09T08:33:02.903Z,-1.95
2023-02-09T08:36:20.815Z,-1.75
2023-02-09T08:39:39.252Z,-1.68
2023-02-09T08:42:55.458Z,-1.32
2023-02-09T08:46:17.142Z,-1.01
2023-02-09T08:49:33.897Z,-0.99
2023-02-09T08:52:50.481Z,-0.71
2023-02-09T08:56:07.127Z,-0.95
2023-02-09T08:59:24.219Z,-0.94
2023-02-09T09:02:41.893Z,-1.17
2023-02-09T09:05:58.324Z,-0.94
2023-02-09T09:09:15.036Z,-0.84
2023-02-09T09:12:33.151Z,-1.10
2023-02-09T09:15:49.796Z,-0.80
2023-02-09T09:19:06.827Z,-0.62
2023-02-09T09:22:23.448Z,-0.31
2023-02-09T09:25:41.203Z,-0.13
2023-02-09T09:29:03.223Z,-0.11
2023-02-09T09:32:24.569Z,-0.02
2023-02-09T09:35:44.273Z,0.12
2023-02-09T09:39:02.104Z,0.17
2023-02-09T09:42:31.261Z,0.03
2023-02-09T09:45:49.277Z,0.18
2023-02-09T09:49:07.854Z,0.39
2023-02-09T09:52:31.077Z,0.41
2023-02-09T09:55:55.923Z,0.55
2023-02-09T09:59:14.983Z,0.47
2023-02-09T10:02:36.556Z,0.60
2023-02-09T10:05:56.688Z,0.61
2023-02-09T10:09:20.103Z,0.72
2023-02-09T10:12:47.559Z,0.76
2023-02-09T10:16:06.144Z,0.82
2023-02-09T10:19:33.641Z,0.94
2023-02-09T10:22:53.454Z,0.93
2023-02-09T10:26:17.006Z,0.76
2023-02-09T10:29:35.976Z,0.78
2023-02-09T10:32:54.110Z,1.01
2023-02-09T10:36:16.472Z,0.94
2023-02-09T10:39:40.986Z,1.10
2023-02-09T10:43:05.781Z,1.24
2023-02-09T10:46:26.866Z,1.54
2023-02-09T10:49:45.278Z,1.71
2023-02-09T10:53:21.716Z,1.85
2023-02-09T10:56:51.191Z,2.04
2023-02-09T11:00:25.957Z,2.24
2023-02-09T11:03:43.882Z,2.32
2023-02-09T11:07:04.311Z,2.35
2023-02-09T11:10:23.035Z,2.32
2023-02-09T11:13:40.878Z,2.30
2023-02-09T11:17:28.935Z,2.17
2023-02-09T11:20:49.980Z,2.50
2023-02-09T11:24:14.461Z,2.59
2023-02-09T11:27:49.778Z,2.88
2023-02-09T11:31:46.740Z,3.02
2023-02-09T11:35:16.131Z,3.06
2023-02-09T11:38:39.635Z,3.16
2023-02-09T11:42:14.964Z,3.26
2023-02-09T11:45:38.202Z,3.06
2023-02-09T11:49:01.241Z,3.12
2023-02-09T11:52:20.175Z,2.97
2023-02-09T11:55:43.324Z,3.17
2023-02-09T11:59:05.861Z,3.35
2023-02-09T12:02:32.175Z,3.45
2023-02-09T12:05:53.760Z,3.32
2023-02-09T12:09:21.227Z,3.14
2023-02-09T12:12:43.590Z,2.99
2023-02-09T12:16:04.584Z,3.02
2023-02-09T12:19:37.292Z,3.07
2023-02-09T12:23:11.197Z,3.07
2023-02-09T12:26:51.161Z,2.88
2023-02-09T12:30:08.039Z,2.76
2023-02-09T12:33:35.185Z,2.78
2023-02-09T12:37:34.729Z,2.77
2023-02-09T12:40:53.369Z,2.77
2023-02-09T12:44:52.168Z,2.58
2023-02-09T12:48:10.883Z,2.56
2023-02-09T12:52:09.582Z,2.40
2023-02-09T12:55:30.777Z,2.41
2023-02-09T12:59:02.083Z,2.49
2023-02-09T13:02:31.394Z,2.45
2023-02-09T13:05:52.008Z,2.54
2023-02-09T13:09:13.917Z,2.56
2023-02-09T13:12:36.711Z,2.56
2023-02-09T13:16:00.775Z,2.56
2023-02-09T13:19:59.385Z,2.61
2023-02-09T13:23:38.616Z,2.62
2023-02-09T13:27:02.052Z,2.58
2023-02-09T13:30:35.270Z,2.62
2023-02-09T13:33:57.238Z,2.62
2023-02-09T13:37:29.887Z,2.64
2023-02-09T13:40:52.432Z,2.65
2023-02-09T13:44:13.292Z,2.66
2023-02-09T13:47:32.315Z,2.62
2023-02-09T13:50:56.543Z,2.63
2023-02-09T13:54:13.366Z,2.59
2023-02-09T13:57:41.791Z,2.62
2023-02-09T14:01:02.996Z,2.56
2023-02-09T14:04:23.323Z,2.53
2023-02-09T14:07:43.582Z,2.54
2023-02-09T14:11:04.577Z,2.55
2023-02-09T14:14:25.941Z,2.53
2023-02-09T14:17:44.149Z,2.50
2023-02-09T14:21:20.948Z,2.52
2023-02-09T14:24:50.030Z,2.49
2023-02-09T14:28:07.068Z,2.49
2023-02-09T14:31:30.970Z,2.50
2023-02-09T14:34:48.694Z,2.47
2023-02-09T14:38:07.880Z,2.48
2023-02-09T14:41:44.882Z,2.40
2023-02-09T14:45:05.024Z,2.42
2023-02-09T14:48:29.745Z,2.33
2023-02-09T14:51:47.794Z,2.34
2023-02-09T14:55:10.614Z,2.30
2023-02-09T14:58:34.283Z,2.28
2023-02-09T15:01:51.739Z,2.25
2023-02-09T15:05:08.556Z,2.21
2023-02-09T15:08:30.263Z,2.21
2023-02-09T15:12:00.967Z,2.20
2023-02-09T15:15:25.368Z,2.17
2023-02-09T15:18:44.599Z,2.11
2023-02-09T15:22:07.401Z,2.10
2023-02-09T15:25:22.753Z,2.04
2023-02-09T15:28:43.273Z,2.05
2023-02-09T15:31:57.394Z,1.96
2023-02-09T15:35:15.659Z,1.91
2023-02-09T15:38:35.748Z,1.86
2023-02-09T15:42:06.266Z,1.78
2023-02-09T15:45:44.784Z,1.74
2023-02-09T15:49:03.381Z,1.62
2023-02-09T15:52:34.559Z,1.63
2023-02-09T15:55:52.985Z,1.57
2023-02-09T15:59:10.349Z,1.53
2023-02-09T16:02:26.916Z,1.48
2023-02-09T16:05:47.049Z,1.43
2023-02-09T16:09:05.056Z,1.37
2023-02-09T16:12:22.657Z,1.15
2023-02-09T16:15:39.175Z,0.86
2023-02-09T16:18:57.000Z,0.64
2023-02-09T16:22:16.564Z,0.50
2023-02-09T16:25:39.373Z,0.40
2023-02-09T16:28:56.645Z,0.25
2023-02-09T16:32:17.606Z,0.26
2023-02-09T16:35:36.094Z,0.33
2023-02-09T16:38:56.784Z,0.36
2023-02-09T16:42:18.882Z,0.36
2023-02-09T16:45:39.621Z,0.37
2023-02-09T16:48:57.363Z,0.33
2023-02-09T16:52:26.068Z,0.27
2023-02-09T16:55:49.282Z,0.23
2023-02-09T16:59:05.356Z,0.28
2023-02-09T17:02:41.506Z,0.22
2023-02-09T17:06:03.111Z,0.13
2023-02-09T17:09:24.853Z,0.11
2023-02-09T17:12:42.605Z,0.08
2023-02-09T17:16:03.187Z,0.03
2023-02-09T17:19:23.322Z,0.00
2023-02-09T17:22:39.649Z,-0.03
2023-02-09T17:25:57.749Z,-0.13
2023-02-09T17:29:18.177Z,-0.14
2023-02-09T17:32:35.265Z,-0.12
2023-02-09T17:36:22.404Z,-0.18
2023-02-09T17:39:11.081Z,-0.19
2023-02-09T17:42:31.013Z,-0.22
2023-02-09T17:45:50.907Z,-0.25
2023-02-09T17:49:07.164Z,-0.29
2023-02-09T17:52:27.821Z,-0.33
2023-02-09T17:55:45.721Z,-0.40
2023-02-09T17:59:05.357Z,-0.43
2023-02-09T18:02:25.773Z,-0.47
2023-02-09T18:05:45.363Z,-0.53
2023-02-09T18:09:02.799Z,-0.57
2023-02-09T18:12:27.223Z,-0.57
2023-02-09T18:15:47.113Z,-0.60
2023-02-09T18:19:06.110Z,-0.64
2023-02-09T18:22:28.346Z,-0.68
2023-02-09T18:25:47.659Z,-0.68
2023-02-09T18:29:04.519Z,-0.68
2023-02-09T18:32:27.287Z,-0.75
2023-02-09T18:35:47.020Z,-0.77
2023-02-09T18:39:08.204Z,-0.75
2023-02-09T18:42:26.454Z,-0.78
2023-02-09T18:45:45.680Z,-0.77
2023-02-09T18:49:03.349Z,-0.78
2023-02-09T18:52:24.233Z,-0.77
2023-02-09T18:55:44.088Z,-0.80
2023-02-09T18:59:02.499Z,-0.84
2023-02-09T19:02:22.010Z,-0.86
2023-02-09T19:05:39.660Z,-0.92
2023-02-09T19:09:01.563Z,-0.95
2023-02-09T19:12:21.317Z,-1.00
2023-02-09T19:15:43.017Z,-1.04
2023-02-09T19:19:03.194Z,-1.06
2023-02-09T19:22:25.414Z,-1.11
2023-02-09T19:25:47.321Z,-1.16
2023-02-09T19:29:06.762Z,-1.25
2023-02-09T19:32:26.739Z,-1.30
2023-02-09T19:35:43.820Z,-1.43
2023-02-09T19:39:02.196Z,-1.47
2023-02-09T19:42:19.451Z,-1.49
2023-02-09T19:45:38.188Z,-1.48
2023-02-09T19:48:56.174Z,-1.50
2023-02-09T19:52:17.498Z,-1.50
2023-02-09T19:55:39.979Z,-1.50
2023-02-09T19:58:57.994Z,-1.58
2023-02-09T20:02:16.599Z,-1.62
2023-02-09T20:05:50.128Z,-1.59
2023-02-09T20:09:08.760Z,-1.61
2023-02-09T20:12:27.054Z,-1.57
2023-02-09T20:15:47.413Z,-1.56
2023-02-09T20:19:05.609Z,-1.60
2023-02-09T20:22:27.577Z,-1.58
2023-02-09T20:25:48.377Z,-1.65
2023-02-09T20:29:07.532Z,-1.63
2023-02-09T20:32:27.179Z,-1.64
2023-02-09T20:35:46.189Z,-1.56
2023-02-09T20:39:05.354Z,-1.54
2023-02-09T20:42:35.657Z,-1.54
2023-02-09T20:46:09.804Z,-1.56
2023-02-09T20:49:30.580Z,-1.53
2023-02-09T20:52:48.664Z,-1.53
2023-02-09T20:56:06.551Z,-1.47
2023-02-09T20:59:24.362Z,-1.65
2023-02-09T21:02:40.914Z,-1.89
2023-02-09T21:05:57.882Z,-2.26
2023-02-09T21:09:16.914Z,-2.37
2023-02-09T21:12:34.104Z,-2.56
2023-02-09T21:15:52.641Z,-2.78
2023-02-09T21:19:09.857Z,-2.73
2023-02-09T21:22:26.920Z,-2.75
2023-02-09T21:25:43.915Z,-2.81
2023-02-09T21:29:04.315Z,-2.84
2023-02-09T21:32:25.407Z,-2.96
2023-02-09T21:35:42.033Z,-3.00
2023-02-09T21:39:00.525Z,-3.15
2023-02-09T21:42:33.932Z,-3.31
2023-02-09T21:45:50.998Z,-3.51
2023-02-09T21:49:08.466Z,-3.48
2023-02-09T21:52:27.068Z,-3.47
2023-02-09T21:55:44.090Z,-3.35
2023-02-09T21:59:00.466Z,-3.27
2023-02-09T22:02:21.864Z,-3.26
2023-02-09T22:05:38.614Z,-3.25
2023-02-09T22:08:54.913Z,-3.48
2023-02-09T22:12:12.490Z,-3.58
2023-02-09T22:15:28.693Z,-3.45
2023-02-09T22:18:44.907Z,-3.38
2023-02-09T22:22:02.310Z,-3.27
2023-02-09T22:25:19.042Z,-3.21
2023-02-09T22:28:36.540Z,-3.14
2023-02-09T22:32:06.444Z,-3.05
2023-02-09T22:35:49.843Z,-3.20
2023-02-09T22:39:09.343Z,-3.26
2023-02-09T22:42:28.304Z,-3.20
2023-02-09T22:45:44.817Z,-3.13
2023-02-09T22:49:03.831Z,-3.15
2023-02-09T22:52:20.643Z,-3.17
2023-02-09T22:55:37.758Z,-3.20
2023-02-09T22:58:55.573Z,-3.30
2023-02-09T23:02:12.699Z,-3.30
2023-02-09T23:05:31.333Z,-3.30
2023-02-09T23:08:51.658Z,-3.46
2023-02-09T23:12:08.109Z,-3.60
2023-02-09T23:15:24.869Z,-3.53
2023-02-09T23:18:42.004Z,-3.31
2023-02-09T23:22:06.361Z,-3.00
2023-02-09T23:25:41.363Z,-2.76
2023-02-09T23:29:30.750Z,-2.63
2023-02-09T23:32:49.514Z,-2.50
2023-02-09T23:36:14.380Z,-2.40
2023-02-09T23:39:34.483Z,-2.41
2023-02-09T23:42:51.782Z,-2.43
2023-02-09T23:46:22.635Z,-2.41
2023-02-09T23:49:43.711Z,-2.56
2023-02-09T23:53:04.773Z,-2.63
2023-02-09T23:56:26.812Z,-2.58
2023-02-09T23:59:49.778Z,-2.56
